Bom Jesus do Norte, Brazil
Current Conditions -  °F | °C
As of 9:00 AM on Friday 24 Oct 2014 (Local Time) from SBCP Reporting Station
Few Clouds Few Clouds  
Wind Chill: 77°   Ceiling: Unl
Heat Index: 79°   Visibility: 6mi
Dew Point: 64°   Wind: 113mph
Humidity: 65%   Direction: 40°NE
Pressure: 30.06"   Gusts: NA
Location:  21.13°S, 41.68°W
Report Text: SBCP 241100Z 04098KT 9999 FEW020 25/18 Q1018
Loading
Personal Weather Stations






























Interactive Weather Map
Tropical Storm Tracking
New forecast layout! Learn more

10-Day Weather Forecast

Advertisements
Track Severe Weather on mobile